Time;durP1;ratioP1;P1;durP2;ratioP2;P2;SDS_P1;SDS_P2;PMS_P1;PMS_P2;Temp;Humidity;BMP_temperature;BMP_pressure;BME280_temperature;BME280_humidity;BME280_pressure;Samples;Min_cycle;Max_cycle;Signal;HPM_P1;HPM_P2
2023/07/04 00:00:27;;;;;;;3.75;1.60;;;12.10;99.90;;;;;;5022170;28;20033;-80
2023/07/04 00:02:53;;;;;;;7.38;2.63;;;12.10;99.90;;;;;;5023124;28;20559;-80
2023/07/04 00:05:18;;;;;;;10.35;2.20;;;12.00;99.90;;;;;;5022389;28;20029;-80
2023/07/04 00:07:44;;;;;;;7.57;1.60;;;11.90;99.90;;;;;;5024075;28;20240;-79
2023/07/04 00:10:10;;;;;;;9.25;2.58;;;11.90;99.90;;;;;;5026108;28;20047;-80
2023/07/04 00:12:35;;;;;;;7.80;2.17;;;11.80;99.90;;;;;;5023523;28;20038;-80
2023/07/04 00:15:01;;;;;;;7.72;2.15;;;11.80;99.90;;;;;;5003050;28;20572;-80
2023/07/04 00:17:27;;;;;;;5.70;1.88;;;11.70;99.90;;;;;;5023848;28;20042;-80
2023/07/04 00:19:53;;;;;;;9.40;2.15;;;11.70;99.90;;;;;;5031819;28;20041;-80
2023/07/04 00:22:19;;;;;;;8.27;2.05;;;11.60;99.90;;;;;;5004112;28;20541;-80
2023/07/04 00:24:47;;;;;;;4.75;2.17;;;11.60;99.90;;;;;;5005710;28;20033;-80
2023/07/04 00:27:13;;;;;;;8.57;2.30;;;11.60;99.90;;;;;;5021234;28;20116;-80
2023/07/04 00:29:38;;;;;;;5.88;2.10;;;11.50;99.90;;;;;;5050123;28;20041;-80
2023/07/04 00:32:05;;;;;;;6.50;1.92;;;11.50;99.90;;;;;;5022529;28;20930;-80
2023/07/04 00:34:31;;;;;;;6.38;1.98;;;11.40;99.90;;;;;;5017939;28;20037;-80
2023/07/04 00:37:01;;;;;;;5.65;1.98;;;11.40;99.90;;;;;;5023039;28;20348;-79
2023/07/04 00:39:28;;;;;;;5.97;2.47;;;11.40;99.90;;;;;;5021711;28;20094;-80
2023/07/04 00:41:54;;;;;;;5.47;2.60;;;11.30;99.90;;;;;;5023248;28;20530;-80
2023/07/04 00:44:24;;;;;;;7.93;2.20;;;11.30;99.90;;;;;;5032361;28;20531;-80
2023/07/04 00:47:10;;;;;;;7.43;2.40;;;11.20;99.90;;;;;;5025870;28;20512;-80
2023/07/04 00:49:45;;;;;;;8.40;2.22;;;11.20;99.90;;;;;;5024261;28;20048;-80
2023/07/04 00:52:23;;;;;;;8.57;2.25;;;11.10;99.90;;;;;;5021413;28;20037;-80
2023/07/04 00:54:53;;;;;;;8.60;2.10;;;11.10;99.90;;;;;;5023070;28;20045;-80
2023/07/04 00:57:23;;;;;;;5.22;2.22;;;11.10;99.90;;;;;;5022902;28;20357;-80
2023/07/04 00:59:57;;;;;;;7.70;2.35;;;11.10;99.90;;;;;;5032391;28;20038;-79
2023/07/04 01:02:27;;;;;;;6.75;2.17;;;11.10;99.90;;;;;;5020672;28;20031;-80
2023/07/04 01:04:53;;;;;;;4.53;2.10;;;11.10;99.90;;;;;;5004944;28;20033;-80
2023/07/04 01:07:31;;;;;;;6.78;2.20;;;11.10;99.90;;;;;;5018615;28;20080;-80
2023/07/04 01:10:17;;;;;;;6.10;2.25;;;11.10;99.90;;;;;;5019877;28;20413;-80
2023/07/04 01:12:44;;;;;;;6.32;2.17;;;11.00;99.90;;;;;;5021607;28;20045;-80
2023/07/04 01:15:10;;;;;;;5.57;2.35;;;11.10;99.90;;;;;;5045243;28;20086;-80
2023/07/04 01:17:36;;;;;;;8.52;2.40;;;11.00;99.90;;;;;;5020033;28;20470;-80
2023/07/04 01:20:08;;;;;;;5.95;2.20;;;11.10;99.90;;;;;;5003185;28;20122;-80
2023/07/04 01:22:46;;;;;;;7.15;2.50;;;11.20;99.90;;;;;;5018976;28;20045;-80
2023/07/04 01:25:14;;;;;;;9.00;2.75;;;11.20;99.90;;;;;;5005502;28;20037;-80
2023/07/04 01:27:43;;;;;;;6.25;2.80;;;11.20;99.90;;;;;;5028193;28;20042;-79
2023/07/04 01:30:10;;;;;;;6.10;2.20;;;11.20;99.90;;;;;;5027930;28;20042;-80
2023/07/04 01:32:37;;;;;;;7.18;2.30;;;11.20;99.90;;;;;;5006437;28;20128;-80
2023/07/04 01:35:04;;;;;;;3.60;2.28;;;11.30;99.90;;;;;;5024333;28;20038;-80
2023/07/04 01:37:30;;;;;;;5.43;2.17;;;11.30;99.90;;;;;;5032708;28;20588;-80
2023/07/04 01:40:00;;;;;;;10.07;2.53;;;11.30;99.90;;;;;;5024726;28;20055;-80
2023/07/04 01:42:33;;;;;;;5.72;2.13;;;11.40;99.90;;;;;;5022978;28;20479;-80
2023/07/04 01:45:01;;;;;;;5.38;2.38;;;11.40;99.90;;;;;;5048017;28;20049;-80
2023/07/04 01:47:28;;;;;;;6.50;2.22;;;11.40;99.90;;;;;;5050420;28;20079;-80
2023/07/04 01:49:55;;;;;;;7.47;2.95;;;11.50;99.90;;;;;;5031367;28;20033;-80
2023/07/04 01:52:21;;;;;;;5.20;2.25;;;11.50;99.90;;;;;;5039511;28;20029;-80
2023/07/04 01:54:47;;;;;;;6.88;2.38;;;11.60;99.90;;;;;;5005816;28;20045;-80
2023/07/04 01:57:13;;;;;;;10.23;2.97;;;11.50;99.90;;;;;;5036769;28;20021;-80
2023/07/04 01:59:38;;;;;;;13.18;2.58;;;11.60;99.90;;;;;;5025348;28;20159;-80
2023/07/04 02:02:04;;;;;;;5.43;2.33;;;11.70;99.90;;;;;;5035667;28;20326;-80
2023/07/04 02:04:30;;;;;;;8.13;2.47;;;11.60;99.90;;;;;;5041603;28;20068;-80
2023/07/04 02:06:56;;;;;;;6.70;2.20;;;11.60;99.90;;;;;;5025184;28;20041;-80
2023/07/04 02:09:23;;;;;;;4.68;2.10;;;11.60;99.90;;;;;;5027402;28;20032;-80
2023/07/04 02:11:50;;;;;;;4.97;2.10;;;11.60;99.90;;;;;;5028386;28;20482;-80
2023/07/04 02:14:15;;;;;;;3.65;1.95;;;11.60;99.90;;;;;;5035630;28;20044;-80
2023/07/04 02:16:44;;;;;;;6.15;2.35;;;11.60;99.90;;;;;;5027114;28;20049;-79
2023/07/04 02:19:10;;;;;;;5.07;2.17;;;11.60;99.90;;;;;;5033483;28;20551;-80
2023/07/04 02:21:36;;;;;;;4.88;2.20;;;11.60;99.90;;;;;;5035773;28;20681;-80
2023/07/04 02:24:03;;;;;;;7.57;2.28;;;11.70;99.90;;;;;;5030529;28;20123;-80
2023/07/04 02:26:29;;;;;;;6.00;1.98;;;11.70;99.90;;;;;;5024633;28;20109;-80
2023/07/04 02:28:55;;;;;;;11.88;2.40;;;11.70;99.90;;;;;;5021140;28;20403;-80
2023/07/04 02:31:23;;;;;;;4.90;2.50;;;11.70;99.90;;;;;;5002397;28;20045;-80
2023/07/04 02:33:52;;;;;;;7.05;2.65;;;11.70;99.90;;;;;;5021986;28;20553;-80
2023/07/04 02:36:18;;;;;;;3.65;2.15;;;11.70;99.90;;;;;;5037909;28;20042;-79
2023/07/04 02:38:44;;;;;;;4.55;2.20;;;11.70;99.90;;;;;;5025837;28;20055;-80
2023/07/04 02:41:10;;;;;;;4.13;2.05;;;11.70;99.90;;;;;;5023389;28;20497;-80
2023/07/04 02:43:37;;;;;;;4.55;2.50;;;11.70;99.90;;;;;;5021990;28;20444;-80
2023/07/04 02:46:07;;;;;;;4.47;2.50;;;11.70;99.90;;;;;;5026952;28;20036;-80
2023/07/04 02:48:34;;;;;;;7.28;2.40;;;11.70;99.90;;;;;;5006020;28;20042;-80
2023/07/04 02:51:00;;;;;;;5.00;2.60;;;11.70;99.90;;;;;;5022226;28;20033;-80
2023/07/04 02:53:26;;;;;;;10.18;3.47;;;11.80;99.90;;;;;;5023592;28;20037;-80
2023/07/04 02:55:53;;;;;;;9.10;3.00;;;11.80;99.90;;;;;;5027366;28;20037;-81
2023/07/04 02:58:19;;;;;;;7.05;3.40;;;12.00;99.90;;;;;;5005558;28;20047;-81
2023/07/04 03:00:48;;;;;;;15.40;3.83;;;12.10;99.90;;;;;;5028395;28;20472;-80
2023/07/04 03:03:14;;;;;;;8.73;3.55;;;12.10;99.90;;;;;;5017098;28;20045;-80
2023/07/04 03:05:40;;;;;;;12.45;3.70;;;12.20;99.90;;;;;;5006674;28;20037;-80
2023/07/04 03:08:06;;;;;;;8.80;3.88;;;12.20;99.90;;;;;;5027572;28;20275;-80
2023/07/04 03:10:31;;;;;;;9.27;3.42;;;12.20;99.90;;;;;;5025644;28;20310;-80
2023/07/04 03:12:57;;;;;;;10.85;4.20;;;12.20;99.90;;;;;;5052547;28;20033;-80
2023/07/04 03:15:23;;;;;;;10.73;4.00;;;12.20;99.90;;;;;;5023101;28;20041;-80
2023/07/04 03:17:49;;;;;;;9.80;4.00;;;12.30;99.90;;;;;;5021521;28;20316;-80
2023/07/04 03:20:15;;;;;;;6.03;2.90;;;12.30;99.90;;;;;;5003501;28;20045;-80
2023/07/04 03:22:42;;;;;;;7.40;3.30;;;12.30;99.90;;;;;;5035218;28;20044;-80
2023/07/04 03:25:09;;;;;;;9.18;3.40;;;12.30;99.90;;;;;;5036264;28;20094;-80
2023/07/04 03:27:37;;;;;;;7.50;3.05;;;12.40;99.90;;;;;;5010098;28;20037;-80
2023/07/04 03:30:05;;;;;;;10.50;3.15;;;12.30;99.90;;;;;;5005373;28;20110;-80
2023/07/04 03:32:31;;;;;;;6.10;2.90;;;12.40;99.90;;;;;;5004850;28;20037;-80
2023/07/04 03:35:01;;;;;;;5.85;2.88;;;12.40;99.90;;;;;;5003797;28;20075;-80
2023/07/04 03:37:31;;;;;;;12.45;3.13;;;12.40;99.90;;;;;;5012087;28;20037;-80
2023/07/04 03:39:57;;;;;;;7.22;2.88;;;12.30;99.90;;;;;;5033649;28;20099;-79
2023/07/04 03:42:24;;;;;;;9.60;3.03;;;12.40;99.90;;;;;;5007294;28;20172;-80
2023/07/04 03:44:50;;;;;;;6.95;3.00;;;12.40;99.90;;;;;;5021752;28;20036;-80
2023/07/04 03:47:15;;;;;;;6.93;2.90;;;12.40;99.90;;;;;;5006828;28;20040;-80
2023/07/04 03:49:41;;;;;;;9.10;2.92;;;12.40;99.90;;;;;;5023988;28;20667;-80
2023/07/04 03:52:07;;;;;;;8.35;2.63;;;12.40;99.90;;;;;;5035659;28;20412;-80
2023/07/04 03:54:33;;;;;;;8.40;2.67;;;12.50;99.90;;;;;;5041603;28;20172;-80
2023/07/04 03:56:59;;;;;;;5.10;2.63;;;12.50;99.90;;;;;;5006730;28;20114;-80
2023/07/04 03:59:25;;;;;;;7.75;3.15;;;12.50;99.90;;;;;;5035122;28;20044;-80
2023/07/04 04:01:51;;;;;;;8.32;3.00;;;12.60;99.90;;;;;;5035522;28;20036;-80
2023/07/04 04:04:16;;;;;;;9.75;3.50;;;12.60;99.90;;;;;;5005176;28;20063;-80
2023/07/04 04:06:42;;;;;;;8.27;3.80;;;12.60;99.90;;;;;;5031370;28;20033;-80
2023/07/04 04:09:08;;;;;;;8.43;3.50;;;12.60;99.90;;;;;;5022616;28;20037;-80
2023/07/04 04:11:33;;;;;;;9.18;3.30;;;12.60;99.90;;;;;;5025007;28;20057;-80
2023/07/04 04:13:59;;;;;;;9.48;3.30;;;12.70;99.90;;;;;;5024302;28;20394;-80
2023/07/04 04:16:25;;;;;;;9.55;3.70;;;12.70;99.90;;;;;;5022460;28;20041;-80
2023/07/04 04:18:51;;;;;;;10.10;3.72;;;12.70;99.90;;;;;;5049554;28;20093;-80
2023/07/04 04:21:17;;;;;;;14.18;4.13;;;12.70;99.90;;;;;;5024270;28;20045;-80
2023/07/04 04:23:43;;;;;;;11.73;3.83;;;12.80;99.90;;;;;;5025280;28;20374;-80
2023/07/04 04:26:09;;;;;;;11.02;4.10;;;12.80;99.90;;;;;;5007740;28;20040;-80
2023/07/04 04:28:35;;;;;;;8.93;3.53;;;12.90;99.90;;;;;;5020784;28;20102;-80
2023/07/04 04:31:01;;;;;;;8.95;3.70;;;12.90;99.90;;;;;;5051533;28;20037;-80
2023/07/04 04:33:27;;;;;;;9.15;3.97;;;12.90;99.90;;;;;;5020287;28;20126;-80
2023/07/04 04:35:53;;;;;;;7.38;3.55;;;12.90;99.90;;;;;;5009155;28;20041;-80
2023/07/04 04:38:18;;;;;;;7.28;3.50;;;13.00;99.90;;;;;;5023104;28;20091;-80
2023/07/04 04:40:44;;;;;;;6.13;4.00;;;13.10;99.90;;;;;;5023972;28;20053;-80
2023/07/04 04:43:10;;;;;;;9.77;3.90;;;13.20;99.90;;;;;;5052260;28;20431;-80
2023/07/04 04:45:38;;;;;;;8.77;3.90;;;13.20;99.90;;;;;;5000184;28;20042;-80
2023/07/04 04:48:06;;;;;;;9.18;3.67;;;13.20;99.90;;;;;;5033017;28;20486;-80
2023/07/04 04:50:32;;;;;;;10.35;3.60;;;13.20;99.90;;;;;;5024556;28;20069;-80
2023/07/04 04:52:59;;;;;;;12.70;3.90;;;13.30;99.90;;;;;;5020843;28;20487;-80
2023/07/04 04:55:25;;;;;;;10.00;4.00;;;13.30;99.90;;;;;;5023447;28;20163;-79
2023/07/04 04:57:52;;;;;;;7.75;4.00;;;13.40;99.90;;;;;;5020714;28;20047;-80
2023/07/04 05:00:18;;;;;;;11.40;4.20;;;13.40;99.90;;;;;;5042221;28;20037;-80
2023/07/04 05:02:45;;;;;;;6.75;3.92;;;13.50;99.90;;;;;;5018088;28;20528;-80
2023/07/04 05:05:11;;;;;;;9.43;4.13;;;13.60;99.90;;;;;;5024697;28;20090;-80
2023/07/04 05:07:37;;;;;;;7.32;3.85;;;13.60;99.90;;;;;;5028450;28;20062;-80
2023/07/04 05:10:04;;;;;;;10.65;4.13;;;13.70;99.90;;;;;;5045709;28;20061;-80
2023/07/04 05:12:30;;;;;;;11.57;4.00;;;13.70;99.90;;;;;;5018497;28;20037;-80
2023/07/04 05:14:56;;;;;;;6.90;3.83;;;13.70;99.90;;;;;;5000364;28;20116;-80
2023/07/04 05:17:23;;;;;;;7.32;3.70;;;13.80;99.90;;;;;;5020534;28;20179;-80
2023/07/04 05:19:49;;;;;;;6.65;3.22;;;13.80;99.90;;;;;;4999643;28;20311;-80
2023/07/04 05:22:16;;;;;;;11.82;3.50;;;13.90;99.90;;;;;;5020866;28;20044;-80
2023/07/04 05:24:42;;;;;;;8.85;3.20;;;14.00;99.90;;;;;;5034820;28;20080;-80
2023/07/04 05:27:08;;;;;;;8.30;4.25;;;14.10;99.90;;;;;;5024326;28;20230;-79
2023/07/04 05:29:34;;;;;;;11.23;3.60;;;14.10;99.90;;;;;;5019614;28;20048;-80
2023/07/04 05:32:00;;;;;;;11.55;3.95;;;14.20;99.90;;;;;;5018852;28;20278;-80
2023/07/04 05:34:26;;;;;;;8.27;3.60;;;14.20;99.90;;;;;;5018858;28;20140;-80
2023/07/04 05:36:51;;;;;;;9.68;3.75;;;14.20;99.90;;;;;;5003865;28;20044;-80
2023/07/04 05:39:17;;;;;;;12.18;3.53;;;14.20;99.90;;;;;;5023312;28;20068;-80
2023/07/04 05:41:43;;;;;;;9.90;3.08;;;14.30;99.90;;;;;;5023606;28;20558;-80
2023/07/04 05:44:11;;;;;;;8.55;2.80;;;14.50;99.90;;;;;;5020295;28;20495;-80
2023/07/04 05:46:37;;;;;;;6.55;2.80;;;14.60;99.90;;;;;;5035836;28;20041;-80
2023/07/04 05:49:04;;;;;;;10.25;3.05;;;14.70;99.90;;;;;;5014997;28;20549;-80
2023/07/04 05:51:30;;;;;;;7.57;2.65;;;14.70;99.90;;;;;;5019594;28;20440;-80
2023/07/04 05:53:56;;;;;;;7.13;2.47;;;14.70;99.90;;;;;;5008287;28;20498;-80
2023/07/04 05:56:27;;;;;;;9.25;2.65;;;14.80;99.90;;;;;;5032730;28;20131;-79
2023/07/04 05:59:01;;;;;;;8.82;2.17;;;14.80;99.90;;;;;;5016936;28;20037;-80
2023/07/04 06:01:33;;;;;;;4.82;2.20;;;14.90;99.90;;;;;;5019726;28;20069;-80
2023/07/04 06:04:00;;;;;;;5.80;2.08;;;14.80;99.90;;;;;;5002559;28;20037;-80
2023/07/04 06:06:34;;;;;;;6.40;2.80;;;14.90;99.90;;;;;;5038633;28;20048;-80
2023/07/04 06:09:03;;;;;;;4.90;2.10;;;14.90;99.90;;;;;;5026159;28;20037;-80
2023/07/04 06:11:33;;;;;;;8.60;2.30;;;14.90;99.90;;;;;;5020258;28;20129;-80
2023/07/04 06:14:05;;;;;;;7.70;2.17;;;15.00;99.90;;;;;;4997089;28;20366;-80
2023/07/04 06:16:31;;;;;;;4.45;2.22;;;15.10;99.90;;;;;;5025151;28;20480;-80
2023/07/04 06:18:57;;;;;;;6.28;2.35;;;15.20;99.90;;;;;;5033791;28;20080;-80
2023/07/04 06:21:24;;;;;;;4.82;2.20;;;15.20;99.90;;;;;;5009352;28;20591;-80
2023/07/04 06:23:55;;;;;;;7.82;2.20;;;15.30;99.90;;;;;;5037653;28;20038;-80
2023/07/04 06:26:21;;;;;;;4.50;2.03;;;15.40;99.90;;;;;;5021676;28;20812;-80
2023/07/04 06:28:49;;;;;;;7.70;1.98;;;15.40;99.90;;;;;;5053969;28;20452;-80
2023/07/04 06:31:16;;;;;;;4.85;2.05;;;15.50;99.90;;;;;;5027446;28;20447;-80
2023/07/04 06:33:43;;;;;;;4.53;2.00;;;15.60;99.90;;;;;;5019389;28;20036;-80
2023/07/04 06:36:14;;;;;;;4.97;2.40;;;15.60;99.90;;;;;;5008227;28;20049;-80
2023/07/04 06:38:40;;;;;;;8.10;2.33;;;15.60;99.90;;;;;;5028680;28;20041;-80
2023/07/04 06:41:11;;;;;;;7.03;1.90;;;15.70;99.90;;;;;;5001391;28;20229;-80
2023/07/04 06:43:40;;;;;;;6.03;1.88;;;15.80;99.90;;;;;;5025434;28;20067;-80
2023/07/04 06:46:05;;;;;;;6.55;1.63;;;15.80;99.90;;;;;;5056724;28;20072;-80
2023/07/04 06:48:31;;;;;;;4.28;1.73;;;15.90;99.90;;;;;;5031448;28;20092;-80
2023/07/04 06:51:10;;;;;;;3.33;1.55;;;15.90;99.90;;;;;;5021391;28;20045;-80
2023/07/04 06:53:36;;;;;;;4.75;1.50;;;16.00;99.90;;;;;;5008023;28;20036;-80
2023/07/04 06:56:17;;;;;;;3.92;1.45;;;15.90;99.90;;;;;;5053897;28;20052;-79
2023/07/04 06:58:47;;;;;;;6.63;1.40;;;15.90;99.90;;;;;;5021784;28;20033;-80
2023/07/04 07:01:14;;;;;;;4.22;1.48;;;15.90;99.90;;;;;;5023058;28;20087;-80
2023/07/04 07:03:39;;;;;;;5.28;1.40;;;15.90;99.90;;;;;;5051006;28;20044;-80
2023/07/04 07:06:07;;;;;;;4.55;1.58;;;15.80;99.90;;;;;;5029875;28;20041;-80
2023/07/04 07:08:33;;;;;;;5.90;1.55;;;16.00;99.90;;;;;;5025821;28;20426;-80
2023/07/04 07:11:01;;;;;;;3.42;1.20;;;16.10;99.90;;;;;;5025426;28;20041;-80
2023/07/04 07:13:27;;;;;;;2.70;1.30;;;16.40;99.90;;;;;;5021424;28;20041;-80
2023/07/04 07:16:06;;;;;;;3.30;1.45;;;16.40;99.90;;;;;;5025214;28;20033;-80
2023/07/04 07:18:34;;;;;;;2.75;1.33;;;16.50;99.90;;;;;;5030543;28;20065;-80
2023/07/04 07:21:01;;;;;;;2.17;1.35;;;16.40;99.90;;;;;;5022457;28;20118;-80
2023/07/04 07:23:27;;;;;;;3.58;1.30;;;16.40;99.90;;;;;;5024513;28;20357;-80
2023/07/04 07:25:57;;;;;;;7.53;2.05;;;16.40;99.90;;;;;;5025045;28;20032;-80
2023/07/04 07:28:27;;;;;;;4.05;1.52;;;16.60;99.90;;;;;;5051878;28;20038;-80
2023/07/04 07:31:10;;;;;;;3.00;1.30;;;16.70;99.90;;;;;;5027428;28;20029;-80
2023/07/04 07:33:38;;;;;;;2.83;1.27;;;16.80;99.90;;;;;;5048341;28;20056;-80
2023/07/04 07:36:09;;;;;;;4.90;1.60;;;17.00;99.90;;;;;;5022724;28;20419;-80
2023/07/04 07:38:35;;;;;;;3.75;1.63;;;16.90;99.90;;;;;;5052655;28;20087;-80
2023/07/04 07:41:01;;;;;;;5.38;1.35;;;16.80;99.90;;;;;;5025909;28;20471;-80
2023/07/04 07:43:26;;;;;;;6.70;1.35;;;16.90;99.90;;;;;;5038987;28;20037;-80
2023/07/04 07:45:52;;;;;;;4.32;1.40;;;16.80;99.90;;;;;;5042699;28;20048;-80
2023/07/04 07:48:18;;;;;;;3.10;1.33;;;17.00;99.90;;;;;;5022936;28;20033;-80
2023/07/04 07:50:44;;;;;;;3.65;1.33;;;17.00;99.90;;;;;;5048628;28;20373;-80
2023/07/04 07:53:10;;;;;;;3.45;1.40;;;17.10;99.90;;;;;;5026366;28;20372;-80
2023/07/04 07:55:35;;;;;;;2.05;0.82;;;17.20;99.90;;;;;;5037053;28;20048;-80
2023/07/04 07:58:04;;;;;;;3.55;1.50;;;17.00;99.90;;;;;;5022492;28;20349;-80
2023/07/04 08:00:30;;;;;;;3.38;1.48;;;17.10;99.90;;;;;;5004773;28;20407;-80
2023/07/04 08:02:56;;;;;;;4.85;1.25;;;17.00;99.90;;;;;;5035072;28;20037;-80
2023/07/04 08:05:22;;;;;;;3.20;1.20;;;17.00;99.90;;;;;;5019007;28;20053;-80
2023/07/04 08:07:47;;;;;;;5.25;1.00;;;17.00;99.90;;;;;;5036090;28;20029;-81
2023/07/04 08:10:13;;;;;;;3.33;1.02;;;17.10;99.90;;;;;;5037890;28;20478;-80
2023/07/04 08:12:41;;;;;;;5.22;1.40;;;17.00;99.90;;;;;;5026676;28;20041;-80
2023/07/04 08:15:07;;;;;;;5.15;1.60;;;17.10;99.90;;;;;;5051713;28;20525;-80
2023/07/04 08:17:33;;;;;;;2.90;0.95;;;17.20;99.90;;;;;;5023569;28;20128;-80
2023/07/04 08:19:58;;;;;;;4.43;1.23;;;17.30;99.90;;;;;;5048878;28;20512;-80
2023/07/04 08:22:24;;;;;;;4.22;1.40;;;17.20;99.90;;;;;;5025789;28;20037;-80
2023/07/04 08:24:50;;;;;;;4.13;1.15;;;17.30;99.90;;;;;;5006162;28;20045;-81
2023/07/04 08:27:17;;;;;;;3.40;1.40;;;17.20;99.90;;;;;;5023735;28;20447;-79
2023/07/04 08:29:42;;;;;;;4.80;1.40;;;17.40;99.90;;;;;;5051110;28;20041;-80
2023/07/04 08:32:10;;;;;;;3.50;1.23;;;17.50;99.90;;;;;;5024723;28;20034;-80
2023/07/04 08:34:36;;;;;;;5.43;1.40;;;17.60;99.90;;;;;;5003126;28;20253;-80
2023/07/04 08:37:01;;;;;;;4.30;1.50;;;17.70;99.90;;;;;;5039302;28;20088;-80
2023/07/04 08:39:30;;;;;;;3.72;1.60;;;18.00;99.90;;;;;;5050401;28;20173;-80
2023/07/04 08:41:59;;;;;;;5.82;1.67;;;18.10;99.90;;;;;;5022806;28;20060;-81
2023/07/04 08:44:42;;;;;;;4.80;1.60;;;17.80;99.90;;;;;;5036205;28;20056;-80
2023/07/04 08:47:10;;;;;;;5.03;1.63;;;17.70;99.90;;;;;;5021822;28;20087;-80
2023/07/04 08:49:39;;;;;;;5.70;1.55;;;17.80;99.90;;;;;;5024797;28;20047;-80
2023/07/04 08:52:16;;;;;;;7.65;1.52;;;18.10;99.90;;;;;;5044837;28;20053;-80
2023/07/04 08:54:41;;;;;;;5.93;1.80;;;18.00;99.90;;;;;;5013672;28;20496;-80
2023/07/04 08:57:38;;;;;;;7.70;1.80;;;17.80;99.90;;;;;;5025120;28;20044;-80
2023/07/04 09:00:20;;;;;;;7.53;2.13;;;18.00;99.90;;;;;;5018980;28;20353;-80
2023/07/04 09:03:09;;;;;;;4.80;1.95;;;17.80;99.90;;;;;;5000469;28;20479;-80
2023/07/04 09:06:15;;;;;;;5.18;1.73;;;17.50;99.90;;;;;;5032578;28;20037;-80
2023/07/04 09:08:59;;;;;;;;;;;18.10;99.90;;;;;;5014141;28;20102;-80
2023/07/04 09:11:25;;;;;;;6.50;1.90;;;18.70;99.90;;;;;;5019927;28;19922;-80
2023/07/04 09:13:57;;;;;;;5.88;1.90;;;18.90;99.90;;;;;;5034249;28;20053;-80
2023/07/04 09:16:41;;;;;;;3.90;1.85;;;19.00;99.90;;;;;;5034361;28;20071;-80
2023/07/04 09:19:09;;;;;;;7.90;1.50;;;18.50;99.90;;;;;;5019048;28;20714;-81
2023/07/04 09:21:39;;;;;;;7.55;1.95;;;19.00;99.90;;;;;;5015550;28;20465;-80
2023/07/04 09:24:05;;;;;;;11.90;1.77;;;19.00;99.90;;;;;;5000630;28;20563;-80
2023/07/04 09:26:42;;;;;;;8.07;1.80;;;19.00;99.90;;;;;;5036108;28;20033;-81
2023/07/04 09:29:09;;;;;;;16.52;2.10;;;19.10;99.90;;;;;;5022333;28;20033;-81
2023/07/04 09:31:42;;;;;;;4.63;1.88;;;18.80;99.90;;;;;;5020221;28;20052;-80
2023/07/04 09:34:15;;;;;;;9.07;1.48;;;19.10;99.90;;;;;;5021447;28;20032;-81
2023/07/04 09:36:41;;;;;;;7.70;2.00;;;19.20;99.90;;;;;;5021389;28;20049;-80
2023/07/04 09:39:08;;;;;;;6.95;2.10;;;19.30;99.90;;;;;;5022840;28;20102;-81
2023/07/04 09:41:37;;;;;;;6.07;1.67;;;19.20;99.90;;;;;;5021736;28;20409;-80
2023/07/04 09:44:28;;;;;;;7.25;1.90;;;18.90;99.90;;;;;;5049657;28;20389;-80
2023/07/04 09:46:56;;;;;;;9.15;2.03;;;18.80;99.90;;;;;;5009319;28;20049;-81
2023/07/04 09:49:35;;;;;;;6.95;1.90;;;18.70;99.90;;;;;;5049924;28;20033;-80
2023/07/04 09:52:17;;;;;;;5.65;1.52;;;18.90;99.90;;;;;;5034308;28;20053;-80
2023/07/04 09:55:04;;;;;;;4.85;1.52;;;18.80;99.90;;;;;;5055820;28;20049;-81
2023/07/04 09:57:33;;;;;;;6.53;1.92;;;18.80;99.90;;;;;;5037181;28;20059;-81
2023/07/04 10:00:23;;;;;;;7.65;1.90;;;18.90;99.90;;;;;;5054457;28;20440;-80
2023/07/04 10:02:54;;;;;;;6.65;2.03;;;18.90;99.90;;;;;;5030330;28;20539;-80
2023/07/04 10:05:31;;;;;;;7.78;1.70;;;19.10;99.90;;;;;;5002992;28;20065;-81
2023/07/04 10:08:09;;;;;;;11.57;2.40;;;19.50;99.90;;;;;;5027093;28;20394;-81
2023/07/04 10:10:49;;;;;;;8.05;1.83;;;19.10;99.90;;;;;;5010474;28;20535;-81
2023/07/04 10:13:15;;;;;;;5.28;1.60;;;18.70;99.90;;;;;;5026197;28;20327;-81
2023/07/04 10:15:44;;;;;;;8.25;1.98;;;18.70;99.90;;;;;;5028814;28;20226;-80
2023/07/04 10:18:25;;;;;;;6.97;1.65;;;19.20;99.90;;;;;;5022262;28;20440;-80
2023/07/04 10:20:57;;;;;;;5.55;1.48;;;19.50;99.90;;;;;;5035403;28;20041;-80
2023/07/04 10:23:26;;;;;;;6.85;1.95;;;19.50;1.00;;;;;;5027510;28;20084;-81
2023/07/04 10:25:53;;;;;;;8.13;1.85;;;19.50;61.90;;;;;;5039391;28;20037;-80
2023/07/04 10:28:25;;;;;;;7.72;2.08;;;19.80;1.00;;;;;;5027342;28;20143;-81
2023/07/04 10:30:57;;;;;;;6.85;2.08;;;18.80;66.20;;;;;;5026631;28;20429;-80
2023/07/04 10:33:26;;;;;;;6.57;2.00;;;18.80;99.90;;;;;;5025023;28;20045;-81
2023/07/04 10:35:51;;;;;;;6.00;1.70;;;19.40;99.90;;;;;;5006703;28;20136;-81
2023/07/04 10:38:32;;;;;;;4.45;1.40;;;19.50;99.90;;;;;;5027375;28;20183;-80
2023/07/04 10:41:20;;;;;;;2.95;1.30;;;20.20;99.90;;;;;;5036597;28;20582;-80
2023/07/04 10:43:52;;;;;;;5.85;1.75;;;19.70;99.90;;;;;;5022556;28;20034;-80
2023/07/04 10:46:23;;;;;;;5.15;1.48;;;20.50;90.00;;;;;;5025727;28;20037;-80
2023/07/04 10:48:56;;;;;;;7.50;1.80;;;20.10;99.90;;;;;;5024120;28;20029;-80
2023/07/04 10:51:32;;;;;;;7.78;1.80;;;20.30;99.90;;;;;;5020130;28;20776;-81
2023/07/04 10:53:58;;;;;;;5.68;1.60;;;20.60;1.00;;;;;;5024231;28;20352;-80
2023/07/04 10:56:33;;;;;;;6.25;1.60;;;20.50;99.90;;;;;;5024191;28;20049;-80
2023/07/04 10:59:11;;;;;;;;;;;20.40;99.90;;;;;;5021304;28;20067;-81
2023/07/04 11:01:43;;;;;;;5.70;1.58;;;21.10;1.00;;;;;;5050428;28;19964;-80
2023/07/04 11:04:23;;;;;;;6.57;2.10;;;20.80;99.90;;;;;;5003595;28;20545;-79
2023/07/04 11:07:06;;;;;;;9.88;1.70;;;21.00;99.90;;;;;;5017612;28;20064;-80
2023/07/04 11:09:35;;;;;;;5.88;1.80;;;21.00;1.00;;;;;;5008166;28;20053;-80
2023/07/04 11:12:05;;;;;;;7.90;2.28;;;21.00;99.90;;;;;;5005234;28;20051;-81
2023/07/04 11:14:36;;;;;;;4.75;1.55;;;21.30;1.00;;;;;;5019211;28;20052;-80
2023/07/04 11:17:05;;;;;;;6.22;1.75;;;20.40;99.90;;;;;;5020305;28;20048;-79
2023/07/04 11:19:35;;;;;;;5.70;1.65;;;20.20;99.90;;;;;;5006969;28;20040;-80
2023/07/04 11:22:02;;;;;;;6.78;1.60;;;19.70;99.90;;;;;;5046924;28;20037;-80
2023/07/04 11:24:52;;;;;;;6.97;2.13;;;19.50;99.90;;;;;;5029700;28;20203;-80
2023/07/04 11:27:29;;;;;;;3.10;1.48;;;20.00;99.90;;;;;;5019594;28;20061;-80
2023/07/04 11:29:58;;;;;;;8.15;2.10;;;20.00;99.90;;;;;;5021415;28;20415;-80
2023/07/04 11:32:39;;;;;;;6.32;2.17;;;19.90;1.00;;;;;;5029892;28;20034;-80
2023/07/04 11:35:11;;;;;;;4.25;1.75;;;20.60;99.90;;;;;;5030848;28;20045;-81
2023/07/04 11:38:10;;;;;;;7.63;1.98;;;21.00;99.90;;;;;;5026653;28;20115;-80
2023/07/04 11:40:49;;;;;;;5.40;1.73;;;21.20;1.00;;;;;;5023546;28;20088;-81
2023/07/04 11:43:24;;;;;;;4.47;1.88;;;21.70;99.90;;;;;;5021236;28;20084;-80
2023/07/04 11:45:55;;;;;;;8.20;1.83;;;22.00;53.00;;;;;;5021764;28;20525;-80
2023/07/04 11:48:23;;;;;;;8.55;1.80;;;21.90;99.90;;;;;;5021350;28;20460;-81
2023/07/04 11:50:51;;;;;;;8.60;2.10;;;22.00;99.90;;;;;;5046580;28;20444;-80
2023/07/04 11:53:36;;;;;;;4.60;1.98;;;22.60;99.90;;;;;;5036902;28;20586;-81
2023/07/04 11:56:14;;;;;;;8.73;1.77;;;22.20;99.90;;;;;;5048918;28;20044;-80
2023/07/04 11:58:40;;;;;;;7.97;1.52;;;21.80;99.90;;;;;;5029825;28;20534;-81
2023/07/04 12:01:07;;;;;;;8.13;1.83;;;21.50;99.90;;;;;;5020642;28;20045;-80
2023/07/04 12:03:38;;;;;;;7.72;2.20;;;21.70;99.90;;;;;;5028096;28;20037;-81
2023/07/04 12:06:04;;;;;;;6.43;1.92;;;22.20;99.90;;;;;;5006382;28;20581;-81
2023/07/04 12:08:47;;;;;;;7.38;1.58;;;22.20;99.90;;;;;;5026751;28;20454;-80
2023/07/04 12:11:42;;;;;;;9.85;2.40;;;22.30;99.90;;;;;;5005494;28;20041;-81
2023/07/04 12:14:15;;;;;;;8.25;2.00;;;21.70;99.90;;;;;;5018188;28;20674;-80
2023/07/04 12:16:41;;;;;;;7.43;1.73;;;21.90;99.90;;;;;;5031189;28;20136;-80
2023/07/04 12:19:13;;;;;;;8.27;2.28;;;21.50;80.00;;;;;;5005351;28;20040;-80
2023/07/04 12:21:42;;;;;;;6.50;1.58;;;21.20;97.50;;;;;;5047023;28;20045;-80
2023/07/04 12:24:09;;;;;;;8.23;2.00;;;21.40;76.70;;;;;;5047256;28;20116;-80
2023/07/04 12:26:34;;;;;;;4.72;1.88;;;21.70;99.90;;;;;;5038747;28;20037;-80
2023/07/04 12:29:02;;;;;;;6.68;2.08;;;21.50;99.90;;;;;;5046420;28;20047;-80
2023/07/04 12:31:28;;;;;;;5.03;1.95;;;21.20;39.60;;;;;;5022774;28;20548;-80
2023/07/04 12:33:54;;;;;;;4.72;1.60;;;20.50;1.00;;;;;;5019223;28;20114;-80
2023/07/04 12:36:27;;;;;;;7.72;1.98;;;20.30;1.00;;;;;;5020695;28;20230;-80
2023/07/04 12:38:55;;;;;;;7.95;2.17;;;20.30;1.00;;;;;;5021314;28;20059;-80
2023/07/04 12:41:27;;;;;;;5.43;1.88;;;20.70;1.00;;;;;;5027295;28;20053;-80
2023/07/04 12:44:03;;;;;;;5.97;1.92;;;21.30;1.00;;;;;;5019096;28;20501;-80
2023/07/04 12:46:31;;;;;;;7.65;1.98;;;21.50;1.00;;;;;;5004098;28;20140;-80
2023/07/04 12:48:59;;;;;;;6.72;1.98;;;21.90;1.00;;;;;;5022929;28;20244;-80
2023/07/04 12:51:29;;;;;;;5.40;1.92;;;22.10;99.90;;;;;;5002687;28;20100;-80
2023/07/04 12:53:56;;;;;;;5.28;1.95;;;22.00;99.90;;;;;;5021811;28;20458;-80
2023/07/04 12:56:22;;;;;;;8.40;2.33;;;22.30;1.00;;;;;;5018395;28;20094;-80
2023/07/04 12:58:48;;;;;;;8.38;1.90;;;22.10;99.90;;;;;;5028827;28;20049;-80